メインページ
METAR-TAF:

METAR-TAF

空港 :

館山航空基地

館山, 日本

緯度: 34-59N, 経度: 139-50E, 海抜: 3m

現時点の気象観測

当レポートは3時間56分前の06:37(UTC)に作成
の風 10kt
気温 16°C
湿度 94%
気圧 1011 hPa
視程: 3100m
高度300ftの雲は散在している
高度700ftの千切れ雲あり
高度3000ftの曇り
小雨, 霧雨, 靄

METAR: RJTE 240637Z 08010KT 3100 -RADZ BR SCT003 BKN007 OVC030 16/15 Q1011 RMK 3ST003 7ST007 8SC030 A2986

時間: 19:33 (10:33 UTC)


TAF: 見つかりません

4,000以上の空港の気象観測と天気予報(METAR報とTAF報)

利用可能な観測所は地図上に黄色い丸と赤い丸で示す。

丸の上にカーソルを重ねると観測所名を参照できる。

次にクリックすると気象観測と天気予報を参照できる。

マップの切り替え:黒色「×」印の緑ボタンをクリックして拡大、「-」印の緑ボタンをクリックして縮小、緑色の三角印をクリックして隣りの地図に切り替え


METAR-TAF: